createdAt,value
2024-02-11T00:01:03.524Z,95571.56
2024-02-11T00:06:09.798Z,95566.81
2024-02-11T00:11:14.450Z,95574.78
2024-02-11T00:16:19.974Z,95589.72
2024-02-11T00:21:23.650Z,95589.72
2024-02-11T00:26:27.146Z,95601.91
2024-02-11T00:31:32.348Z,95591.50
2024-02-11T00:36:37.866Z,95578.59
2024-02-11T00:41:41.566Z,95599.84
2024-02-11T00:46:47.775Z,95601.66
2024-02-11T00:51:50.901Z,95601.25
2024-02-11T00:56:56.154Z,95608.28
2024-02-11T01:02:01.236Z,95608.25
2024-02-11T01:07:04.275Z,95606.41
2024-02-11T01:12:07.720Z,95608.44
2024-02-11T01:17:12.105Z,95617.63
2024-02-11T01:22:15.242Z,95615.97
2024-02-11T01:27:18.310Z,95613.31
2024-02-11T01:32:24.998Z,95615.13
2024-02-11T01:37:27.887Z,95609.19
2024-02-11T01:42:31.292Z,95609.56
2024-02-11T01:47:36.578Z,95616.53
2024-02-11T01:52:39.609Z,95614.88
2024-02-11T01:57:43.796Z,95610.97
2024-02-11T02:02:49.664Z,95608.31
2024-02-11T02:07:55.341Z,95604.19
2024-02-11T02:12:58.359Z,95602.53
2024-02-11T02:18:03.593Z,95602.09
2024-02-11T02:23:08.034Z,95616.78
2024-02-11T02:28:10.896Z,95610.97
2024-02-11T02:33:14.490Z,95620.50
2024-02-11T02:38:18.803Z,95631.84
2024-02-11T02:43:21.976Z,95624.66
2024-02-11T02:48:24.974Z,95634.63
2024-02-11T02:53:31.094Z,95631.97
2024-02-11T02:58:34.078Z,95619.88
2024-02-11T03:03:38.408Z,95626.41
2024-02-11T03:08:42.790Z,95630.59
2024-02-11T03:13:45.968Z,95623.34
2024-02-11T03:18:49.495Z,95627.91
2024-02-11T03:23:53.798Z,95630.56
2024-02-11T03:28:56.819Z,95638.91
2024-02-11T03:34:01.920Z,95652.34
2024-02-11T03:39:10.072Z,95654.19
2024-02-11T03:44:14.061Z,95668.63
2024-02-11T03:49:17.193Z,95652.72
2024-02-11T03:54:21.365Z,95657.47
2024-02-11T03:59:24.395Z,95663.59
2024-02-11T04:04:27.472Z,95662.41
2024-02-11T04:09:31.794Z,95671.63
2024-02-11T04:14:34.709Z,95675.97
2024-02-11T04:19:38.097Z,95678.25
2024-02-11T04:24:46.718Z,95673.56
2024-02-11T04:29:49.581Z,95674.22
2024-02-11T04:34:54.411Z,95693.06
2024-02-11T04:39:59.605Z,95708.81
2024-02-11T04:45:04.505Z,95703.13
2024-02-11T04:50:11.470Z,95704.13
2024-02-11T04:55:16.309Z,95701.47
2024-02-11T05:00:26.694Z,95727.94
2024-02-11T05:05:30.863Z,95732.59
2024-02-11T05:10:38.484Z,95734.81
2024-02-11T05:15:42.868Z,95735.00
2024-02-11T05:20:45.745Z,95738.88
2024-02-11T05:25:51.422Z,95752.00
2024-02-11T05:30:57.208Z,95775.25
2024-02-11T05:36:00.097Z,95773.03
2024-02-11T05:41:05.322Z,95786.38
2024-02-11T05:46:08.950Z,95782.44
2024-02-11T05:51:14.006Z,95781.34
2024-02-11T05:56:18.528Z,95787.75
2024-02-11T06:01:22.240Z,95792.41
2024-02-11T06:06:25.949Z,95794.94
2024-02-11T06:11:30.231Z,95799.16
2024-02-11T06:16:33.846Z,95806.63
2024-02-11T06:21:37.789Z,95810.13
2024-02-11T06:26:43.285Z,95814.59
2024-02-11T06:31:46.195Z,95814.31
2024-02-11T06:36:49.674Z,95830.38
2024-02-11T06:41:54.486Z,95830.72
2024-02-11T06:46:58.397Z,95848.00
2024-02-11T06:52:01.405Z,95849.47
2024-02-11T06:57:06.222Z,95849.00
2024-02-11T07:02:09.396Z,95848.34
2024-02-11T07:07:12.285Z,95856.94
2024-02-11T07:12:18.613Z,95875.16
2024-02-11T07:17:22.912Z,95895.34
2024-02-11T07:22:26.680Z,95908.09
2024-02-11T07:27:33.286Z,95918.19
2024-02-11T07:32:37.433Z,95917.53
2024-02-11T07:37:42.018Z,95928.94
2024-02-11T07:42:47.349Z,95949.53
2024-02-11T07:47:52.162Z,95946.50
2024-02-11T07:52:56.885Z,95954.66
2024-02-11T07:58:03.527Z,95965.91
2024-02-11T08:03:09.069Z,95964.72
2024-02-11T08:08:12.102Z,95971.50
2024-02-11T08:13:16.324Z,95969.97
2024-02-11T08:18:19.997Z,95982.06
2024-02-11T08:23:24.914Z,95994.97
2024-02-11T08:28:29.223Z,96001.75
2024-02-11T08:33:33.593Z,96004.66
2024-02-11T08:38:37.587Z,96002.28
2024-02-11T08:43:42.674Z,95998.94
2024-02-11T08:48:47.091Z,96008.19
2024-02-11T08:53:50.813Z,96013.63
2024-02-11T08:58:55.337Z,96012.16
2024-02-11T09:04:00.955Z,96012.91
2024-02-11T09:09:06.842Z,96016.56
2024-02-11T09:14:12.097Z,96021.16
2024-02-11T09:19:15.592Z,96020.72
2024-02-11T09:24:19.512Z,96026.19
2024-02-11T09:29:24.160Z,96032.78
2024-02-11T09:34:27.198Z,96029.66
2024-02-11T09:39:30.183Z,96042.78
2024-02-11T09:44:37.377Z,96037.81
2024-02-11T09:49:43.457Z,96044.22
2024-02-11T09:54:47.576Z,96043.81
2024-02-11T09:59:52.441Z,96050.06
2024-02-11T10:05:01.914Z,96056.28
2024-02-11T10:10:05.437Z,96059.78
2024-02-11T10:15:14.160Z,96052.56
2024-02-11T10:20:18.697Z,96049.16
2024-02-11T10:25:23.870Z,96054.47
2024-02-11T10:30:28.288Z,96058.22
2024-02-11T10:35:31.771Z,96067.19
2024-02-11T10:40:38.198Z,96066.25
2024-02-11T10:45:42.552Z,96063.09
2024-02-11T10:50:46.753Z,96073.03
2024-02-11T10:55:50.417Z,96063.41
2024-02-11T11:00:58.437Z,96074.13
2024-02-11T11:06:02.168Z,96080.59
2024-02-11T11:11:06.096Z,96083.56
2024-02-11T11:16:12.511Z,96075.84
2024-02-11T11:21:18.797Z,96080.97
2024-02-11T11:26:22.694Z,96085.97
2024-02-11T11:31:27.689Z,96082.63
2024-02-11T11:36:30.692Z,96083.44
2024-02-11T11:41:34.293Z,96075.34
2024-02-11T11:46:38.633Z,96074.06
2024-02-11T11:51:42.006Z,96070.59
2024-02-11T11:56:46.634Z,96072.53
2024-02-11T12:01:50.967Z,96073.44
2024-02-11T12:06:54.484Z,96073.53
2024-02-11T12:11:57.389Z,96071.94
2024-02-11T12:17:02.882Z,96075.59
2024-02-11T12:22:07.264Z,96073.78
2024-02-11T12:27:12.625Z,96075.81
2024-02-11T12:32:19.109Z,96077.84
2024-02-11T12:37:27.391Z,96073.81
2024-02-11T12:42:33.187Z,96079.06
2024-02-11T12:47:37.931Z,96083.44
2024-02-11T12:52:40.919Z,96091.13
2024-02-11T12:57:44.170Z,96092.56
2024-02-11T13:02:48.505Z,96092.06
2024-02-11T13:07:51.341Z,96088.28
2024-02-11T13:12:54.701Z,96084.19
2024-02-11T13:17:58.990Z,96091.06
2024-02-11T13:23:02.506Z,96096.84
2024-02-11T13:28:05.990Z,96084.91
2024-02-11T13:33:10.991Z,96088.28
2024-02-11T13:38:14.253Z,96088.34
2024-02-11T13:43:18.036Z,96086.25
2024-02-11T13:48:22.500Z,96096.84
2024-02-11T13:53:25.533Z,96087.13
2024-02-11T13:58:28.444Z,96102.22
2024-02-11T14:03:33.387Z,96105.09
2024-02-11T14:08:37.352Z,96109.69
2024-02-11T14:13:41.139Z,96112.91
2024-02-11T14:18:49.082Z,96110.69
2024-02-11T14:23:52.220Z,96118.34
2024-02-11T14:28:55.267Z,96125.75
2024-02-11T14:34:00.989Z,96128.84
2024-02-11T14:39:04.195Z,96131.72
2024-02-11T14:44:11.142Z,96139.78
2024-02-11T14:49:15.574Z,96142.94
2024-02-11T14:54:18.565Z,96146.31
2024-02-11T14:59:22.111Z,96159.78
2024-02-11T15:04:28.709Z,96159.38
2024-02-11T15:09:32.172Z,96152.63
2024-02-11T15:14:35.199Z,96161.97
2024-02-11T15:19:40.841Z,96157.09
2024-02-11T15:24:47.171Z,96165.78
2024-02-11T15:29:50.098Z,96162.31
2024-02-11T15:34:54.509Z,96167.00
2024-02-11T15:39:57.363Z,96168.88
2024-02-11T15:45:02.538Z,96161.63
2024-02-11T15:50:07.988Z,96175.66
2024-02-11T15:55:13.482Z,96179.28
2024-02-11T16:00:21.791Z,96190.22
2024-02-11T16:05:26.190Z,96191.31
2024-02-11T16:10:29.430Z,96194.38
2024-02-11T16:15:34.015Z,96199.66
2024-02-11T16:20:38.350Z,96210.34
2024-02-11T16:25:42.035Z,96208.16
2024-02-11T16:30:45.488Z,96221.06
2024-02-11T16:35:50.549Z,96221.63
2024-02-11T16:40:56.064Z,96232.94
2024-02-11T16:46:00.160Z,96231.56
2024-02-11T16:51:05.262Z,96236.75
2024-02-11T16:56:15.194Z,96247.28
2024-02-11T17:01:18.895Z,96256.81
2024-02-11T17:06:23.911Z,96262.00
2024-02-11T17:11:27.012Z,96273.34
2024-02-11T17:16:31.438Z,96276.38
2024-02-11T17:21:37.810Z,96288.47
2024-02-11T17:26:41.452Z,96293.13
2024-02-11T17:31:45.994Z,96292.63
2024-02-11T17:36:52.648Z,96291.97
2024-02-11T17:41:57.281Z,96305.09
2024-02-11T17:47:00.757Z,96298.13
2024-02-11T17:52:07.353Z,96317.53
2024-02-11T17:57:10.457Z,96324.03
2024-02-11T18:02:13.777Z,96329.34
2024-02-11T18:07:18.132Z,96343.63
2024-02-11T18:12:21.151Z,96342.13
2024-02-11T18:17:24.144Z,96347.47
2024-02-11T18:22:31.091Z,96343.34
2024-02-11T18:27:35.327Z,96347.66
2024-02-11T18:32:38.688Z,96348.34
2024-02-11T18:37:43.016Z,96353.00
2024-02-11T18:42:45.929Z,96358.63
2024-02-11T18:47:50.927Z,96363.47
2024-02-11T18:52:55.503Z,96368.28
2024-02-11T18:57:58.378Z,96367.97
2024-02-11T19:03:02.493Z,96369.63
2024-02-11T19:08:10.140Z,96374.06
2024-02-11T19:13:13.689Z,96378.72
2024-02-11T19:18:16.686Z,96380.88
2024-02-11T19:23:21.477Z,96395.97
2024-02-11T19:28:24.962Z,96385.00
2024-02-11T19:33:28.063Z,96389.16
2024-02-11T19:38:33.111Z,96387.19
2024-02-11T19:43:36.037Z,96395.13
2024-02-11T19:48:39.441Z,96394.97
2024-02-11T19:53:44.261Z,96405.59
2024-02-11T19:58:49.733Z,96413.56
2024-02-11T20:03:52.731Z,96419.69
2024-02-11T20:08:56.996Z,96422.34
2024-02-11T20:14:00.397Z,96426.84
2024-02-11T20:19:04.132Z,96425.00
2024-02-11T20:24:10.520Z,96431.97
2024-02-11T20:29:14.972Z,96428.66
2024-02-11T20:34:18.155Z,96433.81
2024-02-11T20:39:23.342Z,96440.91
2024-02-11T20:44:27.851Z,96442.75
2024-02-11T20:49:30.934Z,96452.53
2024-02-11T20:54:35.973Z,96458.50
2024-02-11T20:59:38.836Z,96457.66
2024-02-11T21:04:43.801Z,96452.69
2024-02-11T21:09:50.834Z,96462.81
2024-02-11T21:14:55.051Z,96461.50
2024-02-11T21:19:57.989Z,96458.84
2024-02-11T21:25:02.286Z,96457.66
2024-02-11T21:30:06.188Z,96464.16
2024-02-11T21:35:10.522Z,96467.13
2024-02-11T21:40:15.118Z,96469.09
2024-02-11T21:45:19.482Z,96475.41
2024-02-11T21:50:24.676Z,96475.41
2024-02-11T21:55:28.956Z,96472.25
2024-02-11T22:00:33.243Z,96484.53
2024-02-11T22:05:37.574Z,96485.53
2024-02-11T22:10:42.845Z,96489.16
2024-02-11T22:15:46.049Z,96494.81
2024-02-11T22:20:50.441Z,96491.81
2024-02-11T22:25:55.503Z,96491.50
2024-02-11T22:30:59.382Z,96493.50
2024-02-11T22:36:02.369Z,96495.28
2024-02-11T22:41:09.293Z,96506.75
2024-02-11T22:46:12.165Z,96502.59
2024-02-11T22:51:15.708Z,96498.59
2024-02-11T22:56:20.890Z,96511.19
2024-02-11T23:01:23.789Z,96506.88
2024-02-11T23:06:27.189Z,96514.69
2024-02-11T23:11:32.654Z,96511.19
2024-02-11T23:16:35.645Z,96512.88
2024-02-11T23:21:39.193Z,96527.78
2024-02-11T23:26:43.364Z,96522.66
2024-02-11T23:31:46.908Z,96538.91
2024-02-11T23:36:50.232Z,96533.59
2024-02-11T23:41:54.551Z,96534.59
2024-02-11T23:46:59.214Z,96544.34
2024-02-11T23:52:06.292Z,96549.81
2024-02-11T23:57:13.631Z,96559.59
